createdAt,value
2023-07-02T00:01:03.421Z,12.73
2023-07-02T00:04:17.708Z,12.67
2023-07-02T00:07:19.494Z,12.60
2023-07-02T00:10:30.783Z,12.55
2023-07-02T00:13:31.545Z,12.51
2023-07-02T00:16:43.952Z,12.49
2023-07-02T00:19:37.529Z,12.49
2023-07-02T00:22:43.215Z,12.49
2023-07-02T00:25:54.114Z,12.48
2023-07-02T00:29:07.276Z,12.47
2023-07-02T00:32:02.753Z,12.44
2023-07-02T00:35:07.165Z,12.40
2023-07-02T00:38:19.236Z,12.35
2023-07-02T00:41:30.029Z,12.31
2023-07-02T00:44:33.317Z,12.27
2023-07-02T00:47:37.142Z,12.24
2023-07-02T00:50:41.798Z,12.22
2023-07-02T00:53:34.390Z,12.22
2023-07-02T00:56:47.306Z,12.25
2023-07-02T00:59:41.122Z,12.29
2023-07-02T01:02:37.500Z,12.32
2023-07-02T01:05:42.742Z,12.35
2023-07-02T01:08:43.529Z,12.36
2023-07-02T01:11:56.287Z,12.36
2023-07-02T01:14:54.266Z,12.35
2023-07-02T01:18:06.179Z,12.31
2023-07-02T01:21:17.020Z,12.26
2023-07-02T01:24:22.485Z,12.23
2023-07-02T01:27:17.189Z,12.21
2023-07-02T01:30:28.306Z,12.19
2023-07-02T01:33:28.252Z,12.17
2023-07-02T01:36:28.831Z,12.14
2023-07-02T01:39:39.706Z,12.10
2023-07-02T01:42:50.441Z,12.07
2023-07-02T01:45:51.465Z,12.04
2023-07-02T01:49:00.963Z,12.04
2023-07-02T01:52:11.816Z,12.07
2023-07-02T01:55:12.655Z,12.12
2023-07-02T01:58:17.084Z,12.18
2023-07-02T02:01:07.747Z,12.23
2023-07-02T02:04:08.755Z,12.27
2023-07-02T02:07:19.537Z,12.30
2023-07-02T02:10:24.091Z,12.32
2023-07-02T02:13:34.407Z,12.34
2023-07-02T02:16:46.999Z,12.36
2023-07-02T02:19:56.283Z,12.37
2023-07-02T02:22:58.046Z,12.38
2023-07-02T02:26:08.812Z,12.41
2023-07-02T02:29:19.592Z,12.44
2023-07-02T02:32:30.324Z,12.47
2023-07-02T02:35:21.121Z,12.49
2023-07-02T02:38:25.209Z,12.50
2023-07-02T02:41:25.831Z,12.52
2023-07-02T02:44:26.763Z,12.51
2023-07-02T02:47:27.776Z,12.50
2023-07-02T02:50:42.411Z,12.51
2023-07-02T02:53:35.479Z,12.52
2023-07-02T02:56:29.686Z,12.55
2023-07-02T02:59:34.368Z,12.56
2023-07-02T03:02:34.295Z,12.57
2023-07-02T03:05:29.787Z,12.58
2023-07-02T03:08:41.649Z,12.57
2023-07-02T03:11:41.492Z,12.57
2023-07-02T03:14:55.750Z,12.57
2023-07-02T03:17:46.571Z,12.58
2023-07-02T03:20:37.321Z,12.57
2023-07-02T03:23:30.711Z,12.54
2023-07-02T03:26:31.841Z,12.47
2023-07-02T03:29:42.774Z,12.40
2023-07-02T03:32:53.702Z,12.32
2023-07-02T03:35:47.746Z,12.23
2023-07-02T03:38:40.957Z,12.16
2023-07-02T03:41:34.749Z,12.09
2023-07-02T03:44:45.224Z,12.04
2023-07-02T03:47:56.080Z,12.01
2023-07-02T03:51:07.033Z,12.03
2023-07-02T03:54:17.771Z,12.09
2023-07-02T03:57:28.665Z,12.13
2023-07-02T04:00:32.918Z,12.16
2023-07-02T04:03:49.937Z,12.19
2023-07-02T04:06:51.634Z,12.22
2023-07-02T04:10:02.578Z,12.25
2023-07-02T04:13:13.545Z,12.27
2023-07-02T04:16:23.016Z,12.30
2023-07-02T04:19:14.445Z,12.33
2023-07-02T04:22:25.366Z,12.37
2023-07-02T04:25:51.252Z,12.42
2023-07-02T04:29:07.088Z,12.47
2023-07-02T04:32:09.883Z,12.50
2023-07-02T04:35:20.918Z,12.54
2023-07-02T04:38:11.764Z,12.57
2023-07-02T04:41:22.652Z,12.58
2023-07-02T04:44:33.008Z,12.59
2023-07-02T04:47:33.034Z,12.60
2023-07-02T04:50:26.478Z,12.61
2023-07-02T04:53:28.264Z,12.65
2023-07-02T04:56:39.305Z,12.70
2023-07-02T04:59:29.995Z,12.74
2023-07-02T05:02:24.034Z,12.78
2023-07-02T05:05:34.836Z,12.81
2023-07-02T05:08:45.894Z,12.85
2023-07-02T05:11:36.681Z,12.87
2023-07-02T05:14:36.642Z,12.87
2023-07-02T05:17:47.506Z,12.90
2023-07-02T05:20:38.118Z,12.92
2023-07-02T05:23:49.170Z,12.96
2023-07-02T05:26:42.778Z,13.00
2023-07-02T05:29:47.710Z,13.04
2023-07-02T05:32:38.517Z,13.06
2023-07-02T05:35:29.227Z,13.08
2023-07-02T05:38:20.218Z,13.09
2023-07-02T05:41:13.486Z,13.10
2023-07-02T05:44:24.274Z,13.13
2023-07-02T05:47:27.393Z,13.19
2023-07-02T05:50:19.419Z,13.25
2023-07-02T05:53:21.532Z,13.33
2023-07-02T05:56:12.418Z,13.40
2023-07-02T05:59:03.129Z,13.47
2023-07-02T06:01:53.824Z,13.53
2023-07-02T06:04:47.584Z,13.60
2023-07-02T06:07:41.360Z,13.67
2023-07-02T06:10:34.525Z,13.74
2023-07-02T06:13:25.142Z,13.80
2023-07-02T06:16:18.655Z,13.86
2023-07-02T06:19:11.724Z,13.90
2023-07-02T06:22:02.298Z,13.96
2023-07-02T06:24:52.956Z,14.04
2023-07-02T06:27:43.487Z,14.10
2023-07-02T06:30:34.207Z,14.17
2023-07-02T06:33:24.937Z,14.22
2023-07-02T06:36:29.645Z,14.26
2023-07-02T06:39:20.273Z,14.27
2023-07-02T06:42:11.046Z,14.29
2023-07-02T06:45:04.400Z,14.32
2023-07-02T06:47:55.355Z,14.35
2023-07-02T06:50:59.624Z,14.41
2023-07-02T06:53:50.340Z,14.46
2023-07-02T06:56:41.310Z,14.51
2023-07-02T06:59:52.613Z,14.53
2023-07-02T07:02:43.423Z,14.52
2023-07-02T07:05:34.473Z,14.56
2023-07-02T07:08:27.658Z,14.60
2023-07-02T07:11:21.121Z,14.69
2023-07-02T07:14:20.297Z,14.75
2023-07-02T07:17:13.492Z,14.82
2023-07-02T07:20:07.334Z,14.86
2023-07-02T07:23:07.692Z,14.90
2023-07-02T07:26:01.488Z,14.92
2023-07-02T07:29:00.029Z,14.97
2023-07-02T07:31:50.669Z,15.02
2023-07-02T07:34:41.469Z,15.13
2023-07-02T07:37:32.110Z,15.21
2023-07-02T07:40:22.724Z,15.35
2023-07-02T07:43:14.081Z,15.52
2023-07-02T07:46:04.998Z,15.68
2023-07-02T07:49:00.222Z,15.78
2023-07-02T07:51:51.305Z,15.88
2023-07-02T07:54:42.457Z,16.00
2023-07-02T07:57:33.231Z,16.09
2023-07-02T08:00:25.713Z,16.16
2023-07-02T08:03:16.289Z,16.20
2023-07-02T08:06:07.372Z,16.22
2023-07-02T08:08:58.077Z,16.23
2023-07-02T08:11:48.951Z,16.19
2023-07-02T08:14:42.133Z,16.16
2023-07-02T08:17:33.185Z,16.26
2023-07-02T08:20:24.305Z,16.50
2023-07-02T08:23:14.937Z,16.79
2023-07-02T08:26:08.622Z,17.17
2023-07-02T08:28:59.133Z,17.50
2023-07-02T08:31:49.811Z,17.83
2023-07-02T08:34:40.495Z,18.19
2023-07-02T08:37:31.035Z,18.59
2023-07-02T08:40:22.187Z,18.92
2023-07-02T08:43:12.907Z,19.21
2023-07-02T08:46:03.516Z,19.25
2023-07-02T08:48:54.179Z,19.31
2023-07-02T08:51:46.566Z,19.28
2023-07-02T08:54:37.054Z,19.48
2023-07-02T08:57:27.488Z,19.63
2023-07-02T09:00:22.502Z,19.57
2023-07-02T09:03:17.413Z,19.51
2023-07-02T09:06:08.056Z,19.50
2023-07-02T09:09:08.125Z,19.56
2023-07-02T09:11:58.559Z,19.75
2023-07-02T09:14:56.416Z,19.87
2023-07-02T09:17:46.937Z,19.85
2023-07-02T09:20:37.440Z,19.71
2023-07-02T09:23:37.217Z,19.38
2023-07-02T09:26:28.455Z,19.16
2023-07-02T09:29:21.542Z,19.12
2023-07-02T09:32:12.100Z,18.98
2023-07-02T09:35:03.112Z,18.68
2023-07-02T09:37:55.061Z,18.30
2023-07-02T09:40:49.128Z,17.90
2023-07-02T09:43:40.369Z,17.57
2023-07-02T09:46:32.182Z,17.46
2023-07-02T09:49:23.518Z,17.69
2023-07-02T09:52:14.257Z,18.00
2023-07-02T09:55:05.447Z,18.33
2023-07-02T09:57:56.335Z,18.72
2023-07-02T10:00:47.215Z,18.99
2023-07-02T10:03:39.097Z,19.17
2023-07-02T10:06:29.697Z,19.55
2023-07-02T10:09:20.435Z,20.11
2023-07-02T10:12:22.716Z,20.54
2023-07-02T10:15:13.059Z,20.56
2023-07-02T10:18:04.648Z,20.54
2023-07-02T10:20:55.226Z,20.68
2023-07-02T10:23:45.811Z,20.86
2023-07-02T10:26:36.297Z,21.17
2023-07-02T10:29:27.620Z,21.36
2023-07-02T10:32:28.219Z,21.44
2023-07-02T10:35:19.255Z,21.32
2023-07-02T10:38:09.919Z,21.04
2023-07-02T10:41:01.759Z,21.80
2023-07-02T10:43:52.183Z,23.51
2023-07-02T10:46:48.859Z,24.39
2023-07-02T10:49:38.976Z,24.98
2023-07-02T10:52:39.049Z,25.49
2023-07-02T10:55:29.987Z,25.14
2023-07-02T10:58:20.425Z,24.45
2023-07-02T11:01:12.487Z,23.60
2023-07-02T11:04:03.692Z,22.60
2023-07-02T11:06:54.250Z,21.82
2023-07-02T11:09:51.749Z,21.10
2023-07-02T11:12:42.202Z,20.58
2023-07-02T11:15:37.979Z,20.72
2023-07-02T11:18:33.330Z,21.13
2023-07-02T11:21:23.914Z,21.57
2023-07-02T11:24:14.365Z,22.17
2023-07-02T11:27:06.424Z,22.74
2023-07-02T11:30:02.783Z,23.37
2023-07-02T11:32:54.993Z,24.00
2023-07-02T11:35:45.652Z,24.26
2023-07-02T11:38:38.427Z,23.42
2023-07-02T11:41:38.411Z,22.34
2023-07-02T11:44:28.810Z,21.54
2023-07-02T11:47:19.824Z,20.95
2023-07-02T11:50:24.400Z,20.51
2023-07-02T11:53:16.612Z,20.04
2023-07-02T11:56:07.087Z,19.54
2023-07-02T11:58:57.695Z,19.18
2023-07-02T12:01:48.474Z,19.17
2023-07-02T12:04:39.301Z,20.08
2023-07-02T12:07:29.813Z,21.46
2023-07-02T12:10:20.306Z,23.44
2023-07-02T12:13:10.877Z,25.05
2023-07-02T12:16:01.692Z,26.57
2023-07-02T12:18:52.153Z,28.46
2023-07-02T12:21:42.694Z,29.09
2023-07-02T12:24:33.316Z,28.13
2023-07-02T12:27:24.081Z,27.52
2023-07-02T12:30:18.412Z,28.12
2023-07-02T12:33:09.011Z,27.57
2023-07-02T12:36:00.702Z,26.06
2023-07-02T12:38:51.167Z,24.72
2023-07-02T12:41:41.697Z,24.09
2023-07-02T12:44:32.183Z,23.76
2023-07-02T12:47:22.775Z,23.35
2023-07-02T12:50:14.004Z,22.71
2023-07-02T12:53:04.518Z,22.23
2023-07-02T12:55:55.914Z,23.52
2023-07-02T12:58:46.298Z,25.02
2023-07-02T13:01:36.877Z,26.44
2023-07-02T13:04:27.474Z,27.06
2023-07-02T13:07:18.400Z,28.25
2023-07-02T13:10:09.604Z,28.75
2023-07-02T13:13:10.033Z,28.35
2023-07-02T13:16:09.232Z,27.58
2023-07-02T13:19:02.911Z,27.36
2023-07-02T13:21:53.526Z,27.77
2023-07-02T13:24:45.762Z,28.52
2023-07-02T13:27:36.237Z,29.19
2023-07-02T13:30:28.528Z,28.98
2023-07-02T13:33:18.656Z,27.74
2023-07-02T13:36:09.346Z,26.61
2023-07-02T13:38:59.984Z,25.35
2023-07-02T13:41:50.583Z,24.23
2023-07-02T13:44:41.130Z,23.08
2023-07-02T13:47:31.704Z,22.28
2023-07-02T13:50:22.331Z,21.96
2023-07-02T13:53:12.796Z,21.81
2023-07-02T13:56:03.479Z,22.93
2023-07-02T13:59:06.821Z,24.26
2023-07-02T14:01:57.443Z,24.78
2023-07-02T14:04:48.028Z,24.92
2023-07-02T14:07:38.619Z,25.38
2023-07-02T14:10:29.765Z,25.06
2023-07-02T14:13:20.233Z,24.37
2023-07-02T14:16:10.858Z,23.61
2023-07-02T14:19:01.419Z,23.11
2023-07-02T14:21:51.983Z,22.55
2023-07-02T14:24:42.723Z,22.19
2023-07-02T14:27:33.577Z,21.91
2023-07-02T14:30:24.304Z,21.46
2023-07-02T14:33:14.919Z,21.08
2023-07-02T14:36:05.789Z,21.20
2023-07-02T14:38:56.359Z,21.68
2023-07-02T14:41:46.951Z,21.81
2023-07-02T14:44:37.551Z,21.41
2023-07-02T14:47:28.148Z,20.92
2023-07-02T14:50:19.855Z,20.66
2023-07-02T14:53:10.962Z,20.63
2023-07-02T14:56:03.504Z,20.58
2023-07-02T14:58:54.112Z,20.70
2023-07-02T15:01:46.034Z,20.99
2023-07-02T15:04:39.268Z,21.52
2023-07-02T15:07:29.656Z,21.65
2023-07-02T15:10:20.382Z,21.52
2023-07-02T15:13:11.506Z,21.24
2023-07-02T15:16:02.156Z,20.93
2023-07-02T15:18:52.821Z,20.67
2023-07-02T15:21:43.415Z,20.62
2023-07-02T15:24:36.136Z,20.82
2023-07-02T15:27:27.890Z,20.97
2023-07-02T15:30:19.162Z,20.78
2023-07-02T15:33:09.847Z,20.12
2023-07-02T15:36:01.040Z,19.87
2023-07-02T15:38:51.975Z,20.05
2023-07-02T15:41:44.214Z,20.24
2023-07-02T15:44:35.814Z,20.48
2023-07-02T15:47:26.512Z,20.29
2023-07-02T15:50:17.171Z,20.14
2023-07-02T15:53:07.712Z,20.08
2023-07-02T15:55:58.721Z,19.94
2023-07-02T15:58:49.478Z,20.20
2023-07-02T16:01:40.756Z,20.11
2023-07-02T16:04:31.370Z,20.03
2023-07-02T16:07:22.258Z,20.12
2023-07-02T16:10:12.877Z,20.36
2023-07-02T16:13:03.594Z,20.52
2023-07-02T16:15:54.716Z,20.53
2023-07-02T16:18:45.252Z,20.34
2023-07-02T16:21:38.235Z,20.05
2023-07-02T16:24:30.295Z,19.56
2023-07-02T16:27:21.780Z,18.96
2023-07-02T16:30:13.252Z,18.40
2023-07-02T16:33:03.885Z,17.92
2023-07-02T16:35:54.527Z,17.71
2023-07-02T16:38:45.650Z,17.80
2023-07-02T16:41:38.126Z,17.88
2023-07-02T16:44:29.552Z,18.00
2023-07-02T16:47:20.201Z,18.15
2023-07-02T16:50:11.671Z,18.19
2023-07-02T16:53:05.413Z,18.25
2023-07-02T16:55:59.411Z,18.22
2023-07-02T16:58:50.093Z,18.20
2023-07-02T17:01:40.826Z,18.25
2023-07-02T17:04:31.620Z,18.17
2023-07-02T17:07:22.155Z,18.00
2023-07-02T17:10:13.118Z,17.89
2023-07-02T17:13:03.499Z,17.79
2023-07-02T17:15:54.289Z,17.55
2023-07-02T17:18:44.955Z,17.22
2023-07-02T17:21:36.508Z,16.84
2023-07-02T17:24:27.734Z,16.51
2023-07-02T17:27:19.297Z,16.37
2023-07-02T17:30:11.952Z,16.29
2023-07-02T17:33:02.421Z,16.25
2023-07-02T17:35:52.912Z,16.23
2023-07-02T17:38:43.403Z,16.26
2023-07-02T17:41:33.835Z,16.27
2023-07-02T17:44:26.890Z,16.28
2023-07-02T17:47:18.885Z,16.41
2023-07-02T17:50:10.302Z,16.63
2023-07-02T17:53:00.900Z,16.88
2023-07-02T17:55:52.004Z,17.06
2023-07-02T17:58:42.784Z,17.25
2023-07-02T18:01:41.950Z,17.44
2023-07-02T18:07:23.808Z,17.62
2023-07-02T18:10:14.487Z,17.76
2023-07-02T18:13:05.343Z,17.81
2023-07-02T18:15:58.085Z,17.77
2023-07-02T18:18:48.868Z,17.59
2023-07-02T18:21:39.425Z,17.44
2023-07-02T18:24:30.440Z,17.28
2023-07-02T18:27:21.002Z,17.16
2023-07-02T18:30:12.350Z,17.22
2023-07-02T18:33:03.017Z,17.43
2023-07-02T18:35:55.766Z,17.55
2023-07-02T18:38:46.393Z,17.44
2023-07-02T18:41:36.996Z,17.20
2023-07-02T18:44:30.473Z,16.95
2023-07-02T18:47:22.480Z,16.76
2023-07-02T18:50:14.792Z,16.59
2023-07-02T18:53:05.319Z,16.46
2023-07-02T18:56:00.361Z,16.35
2023-07-02T18:58:50.534Z,16.29
2023-07-02T19:01:44.145Z,16.28
2023-07-02T19:04:35.381Z,16.26
2023-07-02T19:07:26.011Z,16.27
2023-07-02T19:10:17.861Z,16.28
2023-07-02T19:13:12.254Z,16.23
2023-07-02T19:16:02.866Z,16.11
2023-07-02T19:18:53.524Z,16.02
2023-07-02T19:21:46.748Z,16.06
2023-07-02T19:24:37.392Z,16.14
2023-07-02T19:27:28.278Z,16.27
2023-07-02T19:30:22.067Z,16.31
2023-07-02T19:33:13.002Z,16.36
2023-07-02T19:36:07.105Z,16.39
2023-07-02T19:38:57.757Z,16.41
2023-07-02T19:41:56.150Z,16.34
2023-07-02T19:44:54.497Z,16.22
2023-07-02T19:47:45.310Z,16.12
2023-07-02T19:50:39.015Z,16.05
2023-07-02T19:53:30.271Z,16.03
2023-07-02T19:56:29.732Z,16.00
2023-07-02T19:59:20.422Z,15.94
2023-07-02T20:02:11.492Z,15.87
2023-07-02T20:05:03.002Z,15.79
2023-07-02T20:07:53.681Z,15.69
2023-07-02T20:10:44.244Z,15.59
2023-07-02T20:13:35.360Z,15.49
2023-07-02T20:16:29.127Z,15.40
2023-07-02T20:19:21.946Z,15.30
2023-07-02T20:22:14.805Z,15.22
2023-07-02T20:25:35.617Z,15.16
2023-07-02T20:28:16.675Z,15.08
2023-07-02T20:31:07.760Z,15.04
2023-07-02T20:34:02.298Z,15.01
2023-07-02T20:36:57.468Z,15.00
2023-07-02T20:39:49.337Z,14.97
2023-07-02T20:43:00.898Z,14.93
2023-07-02T20:45:55.513Z,14.88
2023-07-02T20:48:46.190Z,14.82
2023-07-02T20:51:57.008Z,14.76
2023-07-02T20:54:47.733Z,14.72
2023-07-02T20:57:41.484Z,14.70
2023-07-02T21:00:42.010Z,14.66
2023-07-02T21:03:41.517Z,14.62
2023-07-02T21:06:52.681Z,14.59
2023-07-02T21:09:46.313Z,14.49
2023-07-02T21:12:37.267Z,14.36
2023-07-02T21:15:39.212Z,14.24
2023-07-02T21:18:50.243Z,14.11
2023-07-02T21:21:47.428Z,13.99
2023-07-02T21:24:38.660Z,13.91
2023-07-02T21:27:29.593Z,13.85
2023-07-02T21:30:21.162Z,13.79
2023-07-02T21:33:14.700Z,13.76
2023-07-02T21:36:09.069Z,13.75
2023-07-02T21:39:03.132Z,13.72
2023-07-02T21:41:56.080Z,13.73
2023-07-02T21:45:09.969Z,13.73
2023-07-02T21:48:11.595Z,13.75
2023-07-02T21:51:02.329Z,13.77
2023-07-02T21:53:55.439Z,13.77
2023-07-02T21:57:06.638Z,13.76
2023-07-02T22:00:18.235Z,13.74
2023-07-02T22:03:09.284Z,13.69
2023-07-02T22:06:05.696Z,13.63
2023-07-02T22:08:59.057Z,13.59
2023-07-02T22:11:52.124Z,13.56
2023-07-02T22:14:57.467Z,13.54
2023-07-02T22:17:50.676Z,13.51
2023-07-02T22:20:55.403Z,13.48
2023-07-02T22:23:49.396Z,13.47
2023-07-02T22:26:40.090Z,13.47
2023-07-02T22:29:30.886Z,13.48
2023-07-02T22:32:31.879Z,13.46
2023-07-02T22:35:22.770Z,13.42
2023-07-02T22:38:33.593Z,13.39
2023-07-02T22:41:44.548Z,13.39
2023-07-02T22:44:35.228Z,13.38
2023-07-02T22:47:46.327Z,13.35
2023-07-02T22:50:39.726Z,13.35
2023-07-02T22:53:30.486Z,13.32
2023-07-02T22:56:22.183Z,13.25
2023-07-02T22:59:33.054Z,13.19
2023-07-02T23:02:33.818Z,13.14
2023-07-02T23:05:24.987Z,13.09
2023-07-02T23:08:36.011Z,13.06
2023-07-02T23:11:37.510Z,13.06
2023-07-02T23:14:39.251Z,13.05
2023-07-02T23:17:30.063Z,13.03
2023-07-02T23:20:23.326Z,13.02
2023-07-02T23:23:14.726Z,13.02
2023-07-02T23:26:07.877Z,13.02
2023-07-02T23:29:08.175Z,13.00
2023-07-02T23:32:14.230Z,12.97
2023-07-02T23:35:32.642Z,12.94
2023-07-02T23:38:24.092Z,12.91
2023-07-02T23:41:24.500Z,12.87
2023-07-02T23:44:26.453Z,12.82
2023-07-02T23:47:19.356Z,12.76
2023-07-02T23:50:28.686Z,12.71
2023-07-02T23:53:31.552Z,12.66
2023-07-02T23:56:42.527Z,12.62
2023-07-02T23:59:36.579Z,12.61
